createdAt,value
2022-10-19T00:00:45.012Z,102863.47
2022-10-19T00:03:12.526Z,102864.25
2022-10-19T00:05:41.560Z,102862.75
2022-10-19T00:08:09.020Z,102864.47
2022-10-19T00:10:36.691Z,102866.34
2022-10-19T00:13:04.030Z,102866.06
2022-10-19T00:15:31.368Z,102860.69
2022-10-19T00:17:58.753Z,102860.59
2022-10-19T00:20:26.198Z,102855.06
2022-10-19T00:22:56.607Z,102855.16
2022-10-19T00:25:23.975Z,102858.03
2022-10-19T00:27:51.413Z,102853.06
2022-10-19T00:30:18.793Z,102847.69
2022-10-19T00:32:46.174Z,102849.56
2022-10-19T00:35:13.637Z,102852.25
2022-10-19T00:37:41.015Z,102851.28
2022-10-19T00:40:10.774Z,102854.28
2022-10-19T00:42:40.930Z,102855.16
2022-10-19T00:45:13.532Z,102847.63
2022-10-19T00:47:41.280Z,102855.94
2022-10-19T00:50:09.430Z,102851.19
2022-10-19T00:52:37.053Z,102845.25
2022-10-19T00:55:07.828Z,102855.88
2022-10-19T00:57:36.803Z,102853.09
2022-10-19T01:00:11.468Z,102843.31
2022-10-19T01:02:38.956Z,102844.25
2022-10-19T01:05:08.359Z,102845.41
2022-10-19T01:07:36.082Z,102841.13
2022-10-19T01:10:04.457Z,102842.94
2022-10-19T01:12:43.491Z,102839.09
2022-10-19T01:15:17.371Z,102839.41
2022-10-19T01:17:49.049Z,102836.50
2022-10-19T01:20:29.024Z,102831.19
2022-10-19T01:23:06.553Z,102828.59
2022-10-19T01:25:40.614Z,102832.03
2022-10-19T01:28:18.193Z,102837.44
2022-10-19T01:30:50.650Z,102838.47
2022-10-19T01:33:25.193Z,102836.94
2022-10-19T01:35:58.886Z,102834.47
2022-10-19T01:38:30.461Z,102836.31
2022-10-19T01:41:00.176Z,102836.13
2022-10-19T01:43:33.525Z,102828.53
2022-10-19T01:46:07.655Z,102833.00
2022-10-19T01:48:37.247Z,102834.47
2022-10-19T01:51:08.489Z,102829.19
2022-10-19T01:53:41.635Z,102824.81
2022-10-19T01:56:11.341Z,102822.09
2022-10-19T01:58:43.441Z,102832.47
2022-10-19T02:01:13.383Z,102830.81
2022-10-19T02:03:41.263Z,102833.22
2022-10-19T02:06:10.012Z,102835.72
2022-10-19T02:08:49.547Z,102830.75
2022-10-19T02:11:17.106Z,102830.84
2022-10-19T02:13:44.788Z,102823.88
2022-10-19T02:16:16.530Z,102825.53
2022-10-19T02:18:46.608Z,102825.53
2022-10-19T02:21:14.055Z,102822.00
2022-10-19T02:23:41.522Z,102816.63
2022-10-19T02:26:09.183Z,102815.25
2022-10-19T02:28:38.147Z,102813.91
2022-10-19T02:31:05.800Z,102810.69
2022-10-19T02:33:34.865Z,102813.84
2022-10-19T02:36:02.289Z,102817.25
2022-10-19T02:38:29.824Z,102813.94
2022-10-19T02:41:03.100Z,102805.41
2022-10-19T02:43:56.973Z,102809.50
2022-10-19T02:46:42.151Z,102794.41
2022-10-19T02:52:22.490Z,102800.69
2022-10-19T02:55:02.096Z,102803.78
2022-10-19T02:57:45.717Z,102795.88
2022-10-19T03:00:30.054Z,102809.19
2022-10-19T03:03:46.639Z,102806.00
2022-10-19T03:06:29.425Z,102802.13
2022-10-19T03:09:02.424Z,102795.72
2022-10-19T03:11:29.793Z,102802.25
2022-10-19T03:13:57.184Z,102795.91
2022-10-19T03:16:27.589Z,102794.44
2022-10-19T03:18:57.977Z,102788.63
2022-10-19T03:21:26.735Z,102797.66
2022-10-19T03:23:54.493Z,102796.22
2022-10-19T03:26:21.903Z,102788.31
2022-10-19T03:28:49.373Z,102791.56
2022-10-19T03:31:16.810Z,102785.31
2022-10-19T03:33:44.161Z,102791.84
2022-10-19T03:36:18.425Z,102783.78
2022-10-19T03:38:50.408Z,102775.97
2022-10-19T03:41:30.843Z,102776.72
2022-10-19T03:44:07.874Z,102781.38
2022-10-19T03:46:47.525Z,102782.66
2022-10-19T03:49:17.928Z,102775.16
2022-10-19T03:52:11.456Z,102779.50
2022-10-19T03:54:56.397Z,102776.00
2022-10-19T03:58:11.031Z,102775.06
2022-10-19T04:01:28.630Z,102775.69
2022-10-19T04:04:12.487Z,102785.34
2022-10-19T04:07:11.629Z,102771.00
2022-10-19T04:10:21.427Z,102773.50
2022-10-19T04:20:06.979Z,102775.03
2022-10-19T04:25:55.900Z,102774.84
2022-10-19T04:28:56.332Z,102770.16
2022-10-19T04:32:01.099Z,102778.47
2022-10-19T04:35:05.892Z,102634.94
2022-10-19T04:44:42.253Z,102773.69
2022-10-19T04:50:33.093Z,102784.06
2022-10-19T04:57:03.584Z,102771.81
2022-10-19T04:59:52.412Z,102769.22
2022-10-19T05:02:46.078Z,102782.91
2022-10-19T05:05:13.611Z,102781.44
2022-10-19T05:07:41.003Z,102768.91
2022-10-19T05:10:09.489Z,102769.22
2022-10-19T05:12:39.162Z,102762.06
2022-10-19T05:15:07.056Z,102765.69
2022-10-19T05:17:35.955Z,102769.22
2022-10-19T05:20:03.499Z,102770.97
2022-10-19T05:22:30.906Z,102757.91
2022-10-19T05:24:58.382Z,102755.84
2022-10-19T05:27:25.874Z,102760.78
2022-10-19T05:29:53.233Z,102759.66
2022-10-19T05:32:20.623Z,102755.94
2022-10-19T05:34:49.336Z,102752.41
2022-10-19T05:37:16.867Z,102762.03
2022-10-19T05:39:44.473Z,102760.09
2022-10-19T05:42:11.909Z,102759.25
2022-10-19T05:44:39.659Z,102758.31
2022-10-19T05:47:10.059Z,102755.41
2022-10-19T05:49:37.508Z,102760.78
2022-10-19T05:52:06.440Z,102758.19
2022-10-19T05:54:35.943Z,102759.25
2022-10-19T05:57:03.489Z,102750.66
2022-10-19T05:59:30.965Z,102755.94
2022-10-19T06:01:58.484Z,102753.59
2022-10-19T06:04:26.259Z,102754.66
2022-10-19T06:06:53.730Z,102761.38
2022-10-19T06:09:22.542Z,102756.84
2022-10-19T06:11:49.969Z,102757.78
2022-10-19T06:14:17.325Z,102748.97
2022-10-19T06:16:45.760Z,102754.16
2022-10-19T06:19:13.210Z,102750.91
2022-10-19T06:21:43.336Z,102755.34
2022-10-19T06:24:14.173Z,102760.53
2022-10-19T06:26:44.220Z,102769.72
2022-10-19T06:29:13.294Z,102770.66
2022-10-19T06:31:42.055Z,102770.75
2022-10-19T06:34:14.671Z,102771.56
2022-10-19T06:36:44.260Z,102760.19
2022-10-19T06:42:41.752Z,102755.59
2022-10-19T06:45:22.478Z,102763.50
2022-10-19T06:51:19.957Z,102738.00
2022-10-19T06:53:54.249Z,102743.91
2022-10-19T06:56:30.729Z,102745.38
2022-10-19T06:59:22.187Z,102744.22
2022-10-19T07:01:59.957Z,102745.88
2022-10-19T07:04:43.437Z,102757.72
2022-10-19T07:07:23.318Z,102753.78
2022-10-19T07:09:58.161Z,102743.81
2022-10-19T07:12:34.786Z,102746.81
2022-10-19T07:15:03.566Z,102747.97
2022-10-19T07:17:48.391Z,102746.63
2022-10-19T07:20:15.974Z,102757.09
2022-10-19T07:22:44.686Z,102756.88
2022-10-19T07:25:12.371Z,102758.94
2022-10-19T07:27:49.860Z,102753.53
2022-10-19T07:30:22.945Z,102740.25
2022-10-19T07:32:52.451Z,102744.88
2022-10-19T07:35:24.997Z,102748.94
2022-10-19T07:37:56.368Z,102758.06
2022-10-19T07:40:27.811Z,102758.34
2022-10-19T07:42:59.326Z,102758.94
2022-10-19T07:45:29.903Z,102761.75
2022-10-19T07:47:57.846Z,102757.97
2022-10-19T07:50:33.463Z,102747.38
2022-10-19T07:53:10.369Z,102747.06
2022-10-19T07:55:37.903Z,102747.97
2022-10-19T07:58:18.362Z,102759.09
2022-10-19T08:00:47.419Z,102765.41
2022-10-19T08:06:04.856Z,102755.50
2022-10-19T08:11:43.697Z,102752.84
2022-10-19T08:14:24.621Z,102754.88
2022-10-19T08:16:56.408Z,102754.31
2022-10-19T08:19:45.147Z,102753.03
2022-10-19T08:22:14.732Z,102749.75
2022-10-19T08:24:44.209Z,102755.91
2022-10-19T08:27:11.576Z,102751.94
2022-10-19T08:29:39.071Z,102759.63
2022-10-19T08:32:08.125Z,102751.97
2022-10-19T08:34:35.657Z,102746.56
2022-10-19T08:37:10.480Z,102748.47
2022-10-19T08:39:47.585Z,102733.22
2022-10-19T08:42:17.216Z,102728.09
2022-10-19T08:44:55.835Z,102726.53
2022-10-19T08:47:28.889Z,102727.13
2022-10-19T08:49:56.859Z,102721.31
2022-10-19T08:52:30.791Z,102725.28
2022-10-19T08:55:02.757Z,102724.09
2022-10-19T08:57:37.220Z,102721.13
2022-10-19T09:00:07.354Z,102712.81
2022-10-19T09:02:49.296Z,102709.09
2022-10-19T09:05:22.191Z,102701.22
2022-10-19T09:07:50.900Z,102700.72
2022-10-19T09:10:20.138Z,102696.41
2022-10-19T09:12:53.894Z,102696.91
2022-10-19T09:15:27.304Z,102701.47
2022-10-19T09:17:56.088Z,102699.91
2022-10-19T09:20:24.700Z,102700.03
2022-10-19T09:22:56.493Z,102693.31
2022-10-19T09:25:24.961Z,102691.66
2022-10-19T09:27:59.207Z,102693.47
2022-10-19T09:30:27.247Z,102686.88
2022-10-19T09:32:59.707Z,102680.56
2022-10-19T09:35:29.207Z,102682.50
2022-10-19T09:37:57.293Z,102673.75
2022-10-19T09:40:25.729Z,102672.66
2022-10-19T09:42:57.336Z,102671.88
2022-10-19T09:45:33.578Z,102673.41
2022-10-19T09:48:08.632Z,102674.66
2022-10-19T09:50:44.089Z,102671.38
2022-10-19T09:53:18.597Z,102666.16
2022-10-19T09:58:18.181Z,102668.38
2022-10-19T10:00:46.885Z,102668.63
2022-10-19T10:03:27.554Z,102666.56
2022-10-19T10:05:56.337Z,102667.81
2022-10-19T10:08:25.771Z,102669.44
2022-10-19T10:11:00.236Z,102672.22
2022-10-19T10:13:28.590Z,102670.94
2022-10-19T10:15:57.537Z,102669.16
2022-10-19T10:18:27.484Z,102675.38
2022-10-19T10:21:00.729Z,102673.44
2022-10-19T10:23:29.262Z,102677.13
2022-10-19T10:25:57.721Z,102684.31
2022-10-19T10:28:26.366Z,102675.75
2022-10-19T10:30:56.125Z,102680.94
2022-10-19T10:33:43.787Z,102675.13
2022-10-19T10:36:15.478Z,102664.59
2022-10-19T10:38:45.647Z,102656.94
2022-10-19T10:41:15.429Z,102627.16
2022-10-19T10:46:27.213Z,102652.00
2022-10-19T10:48:57.176Z,102646.34
2022-10-19T10:51:29.876Z,102634.00
2022-10-19T10:54:07.712Z,102629.44
2022-10-19T10:56:35.373Z,102633.88
2022-10-19T10:59:05.989Z,102637.06
2022-10-19T11:01:36.346Z,102640.22
2022-10-19T11:04:05.865Z,102638.03
2022-10-19T11:06:36.895Z,102632.88
2022-10-19T11:09:11.285Z,102623.59
2022-10-19T11:11:42.044Z,102624.00
2022-10-19T11:14:23.086Z,102622.41
2022-10-19T11:16:52.439Z,102612.06
2022-10-19T11:19:23.287Z,102610.91
2022-10-19T11:21:57.048Z,102600.94
2022-10-19T11:24:31.308Z,102599.31
2022-10-19T11:27:05.781Z,102593.31
2022-10-19T11:29:44.924Z,102585.44
2022-10-19T11:32:19.573Z,102575.94
2022-10-19T11:34:57.804Z,102560.31
2022-10-19T11:37:29.523Z,102556.47
2022-10-19T11:40:03.249Z,102559.22
2022-10-19T11:42:40.615Z,102552.34
2022-10-19T11:45:14.041Z,102538.13
2022-10-19T11:47:51.845Z,102533.22
2022-10-19T11:50:32.115Z,102539.66
2022-10-19T11:53:04.971Z,102531.53
2022-10-19T11:55:36.706Z,102532.66
2022-10-19T11:58:09.903Z,102517.44
2022-10-19T12:00:42.069Z,102513.03
2022-10-19T12:03:23.232Z,102513.22
2022-10-19T12:06:04.694Z,102510.69
2022-10-19T12:08:44.206Z,102504.13
2022-10-19T12:11:23.357Z,102502.34
2022-10-19T12:13:54.055Z,102487.78
2022-10-19T12:16:22.348Z,102480.88
2022-10-19T12:18:51.266Z,102479.94
2022-10-19T12:21:23.353Z,102476.47
2022-10-19T12:23:52.844Z,102461.31
2022-10-19T12:26:21.977Z,102471.69
2022-10-19T12:28:51.913Z,102470.34
2022-10-19T12:31:19.683Z,102461.53
2022-10-19T12:33:50.500Z,102462.84
2022-10-19T12:36:23.350Z,102453.09
2022-10-19T12:39:00.091Z,102455.09
2022-10-19T12:41:31.444Z,102446.06
2022-10-19T12:44:07.127Z,102455.72
2022-10-19T12:46:38.811Z,102447.78
2022-10-19T12:49:25.111Z,102438.13
2022-10-19T12:51:53.700Z,102435.50
2022-10-19T12:54:24.733Z,102428.97
2022-10-19T12:56:53.564Z,102422.38
2022-10-19T12:59:23.739Z,102412.59
2022-10-19T13:01:52.441Z,102413.56
2022-10-19T13:04:21.998Z,102398.19
2022-10-19T13:06:51.203Z,102400.31
2022-10-19T13:09:25.634Z,102399.16
2022-10-19T13:12:12.249Z,102388.66
2022-10-19T13:14:44.606Z,102391.81
2022-10-19T13:17:34.248Z,102381.94
2022-10-19T13:20:16.943Z,102380.16
2022-10-19T13:22:45.548Z,102372.81
2022-10-19T13:25:23.547Z,102374.41
2022-10-19T13:27:51.338Z,102361.28
2022-10-19T13:30:38.078Z,102363.28
2022-10-19T13:33:20.366Z,102359.19
2022-10-19T13:35:47.902Z,102357.88
2022-10-19T13:38:26.423Z,102351.81
2022-10-19T13:41:00.632Z,102356.59
2022-10-19T13:43:30.570Z,102359.69
2022-10-19T13:46:02.208Z,102366.56
2022-10-19T13:48:36.722Z,102363.91
2022-10-19T13:51:08.910Z,102359.19
2022-10-19T13:53:44.410Z,102360.97
2022-10-19T13:56:23.444Z,102365.25
2022-10-19T13:59:10.046Z,102354.91
2022-10-19T14:01:46.139Z,102363.44
2022-10-19T14:04:19.971Z,102364.75
2022-10-19T14:06:51.681Z,102351.31
2022-10-19T14:09:34.002Z,102342.44
2022-10-19T14:12:13.233Z,102348.38
2022-10-19T14:19:51.095Z,102365.44
2022-10-19T14:22:20.278Z,102358.03
2022-10-19T14:24:47.672Z,102365.09
2022-10-19T14:27:19.321Z,102361.81
2022-10-19T14:29:47.885Z,102364.44
2022-10-19T14:32:16.634Z,102361.97
2022-10-19T14:34:47.630Z,102361.13
2022-10-19T14:37:17.484Z,102353.72
2022-10-19T14:39:57.971Z,102342.59
2022-10-19T14:42:37.572Z,102337.88
2022-10-19T14:45:07.520Z,102338.16
2022-10-19T14:47:34.892Z,102336.84
2022-10-19T14:50:04.523Z,102333.72
2022-10-19T14:52:34.078Z,102328.97
2022-10-19T14:55:06.697Z,102323.56
2022-10-19T14:57:39.050Z,102314.41
2022-10-19T15:00:10.111Z,102318.00
2022-10-19T15:02:39.558Z,102318.78
2022-10-19T15:05:15.118Z,102307.97
2022-10-19T15:07:43.499Z,102298.16
2022-10-19T15:10:18.943Z,102292.56
2022-10-19T15:12:48.024Z,102292.72
2022-10-19T15:15:17.731Z,102294.19
2022-10-19T15:18:52.151Z,102287.47
2022-10-19T15:21:21.581Z,102276.31
2022-10-19T15:23:50.325Z,102278.72
2022-10-19T15:26:21.296Z,102265.97
2022-10-19T15:28:49.694Z,102260.22
2022-10-19T15:31:20.019Z,102259.56
2022-10-19T15:33:52.268Z,102235.41
2022-10-19T15:36:21.916Z,102260.03
2022-10-19T15:39:11.452Z,102260.22
2022-10-19T15:41:47.750Z,102254.44
2022-10-19T15:44:32.249Z,102248.69
2022-10-19T15:47:21.303Z,102245.53
2022-10-19T15:50:01.808Z,102250.56
2022-10-19T15:52:30.971Z,102251.66
2022-10-19T15:55:00.230Z,102242.22
2022-10-19T15:57:30.840Z,102238.28
2022-10-19T16:00:00.146Z,102233.69
2022-10-19T16:02:28.144Z,102225.81
2022-10-19T16:04:56.111Z,102220.88
2022-10-19T16:07:30.451Z,102222.91
2022-10-19T16:09:58.748Z,102212.28
2022-10-19T16:12:27.459Z,102176.00
2022-10-19T16:14:55.321Z,102199.16
2022-10-19T16:17:23.741Z,102204.28
2022-10-19T16:19:51.285Z,102197.03
2022-10-19T16:22:18.862Z,102200.59
2022-10-19T16:24:47.853Z,102205.88
2022-10-19T16:27:16.248Z,102188.84
2022-10-19T16:29:44.518Z,102195.06
2022-10-19T16:32:12.213Z,102200.97
2022-10-19T16:34:40.508Z,102205.00
2022-10-19T16:37:08.235Z,102210.41
2022-10-19T16:39:36.004Z,102209.53
2022-10-19T16:42:05.227Z,102201.63
2022-10-19T16:44:32.995Z,102189.00
2022-10-19T16:47:00.599Z,102191.78
2022-10-19T16:49:28.258Z,102189.00
2022-10-19T16:51:57.470Z,102180.41
2022-10-19T16:54:26.929Z,102176.00
2022-10-19T16:56:55.503Z,102173.38
2022-10-19T16:59:24.444Z,102165.81
2022-10-19T17:01:52.134Z,102169.88
2022-10-19T17:04:19.704Z,102169.13
2022-10-19T17:06:47.407Z,102170.09
2022-10-19T17:09:41.402Z,102166.19
2022-10-19T17:12:02.522Z,102162.16
2022-10-19T17:14:31.566Z,102161.00
2022-10-19T17:16:59.146Z,102160.66
2022-10-19T17:19:26.824Z,102159.94
2022-10-19T17:21:56.435Z,102174.78
2022-10-19T17:24:24.042Z,102156.03
2022-10-19T17:26:53.558Z,102162.31
2022-10-19T17:29:22.075Z,102150.97
2022-10-19T17:31:51.377Z,102150.13
2022-10-19T17:34:19.520Z,102149.59
2022-10-19T17:36:47.944Z,102137.31
2022-10-19T17:39:18.075Z,102135.50
2022-10-19T17:41:46.110Z,102131.53
2022-10-19T17:44:15.308Z,102133.63
2022-10-19T17:46:43.101Z,102132.88
2022-10-19T17:49:12.422Z,102131.63
2022-10-19T17:51:40.728Z,102129.88
2022-10-19T17:54:10.397Z,102111.13
2022-10-19T17:56:38.454Z,102131.66
2022-10-19T17:59:07.859Z,102127.81
2022-10-19T18:01:36.326Z,102134.56
2022-10-19T18:04:04.135Z,102141.81
2022-10-19T18:06:35.519Z,102140.38
2022-10-19T18:09:05.530Z,102139.91
2022-10-19T18:11:36.930Z,102145.69
2022-10-19T18:14:05.697Z,102143.63
2022-10-19T18:16:34.114Z,102153.03
2022-10-19T18:19:03.400Z,102153.44
2022-10-19T18:21:35.072Z,102150.41
2022-10-19T18:24:04.097Z,102152.25
2022-10-19T18:26:33.938Z,102144.03
2022-10-19T18:29:03.577Z,102144.47
2022-10-19T18:31:33.392Z,102164.53
2022-10-19T18:34:02.901Z,102161.53
2022-10-19T18:36:31.124Z,102149.44
2022-10-19T18:39:02.052Z,102133.38
2022-10-19T18:41:30.699Z,102125.81
2022-10-19T18:44:01.529Z,102111.28
2022-10-19T18:46:30.116Z,102102.63
2022-10-19T18:48:58.760Z,102099.38
2022-10-19T18:51:28.492Z,102087.97
2022-10-19T18:53:57.423Z,102083.84
2022-10-19T18:56:29.678Z,102088.38
2022-10-19T18:58:58.281Z,102087.84
2022-10-19T19:01:28.638Z,102085.09
2022-10-19T19:03:58.638Z,102085.56
2022-10-19T19:06:30.331Z,102088.56
2022-10-19T19:09:00.003Z,102089.28
2022-10-19T19:11:34.311Z,102085.88
2022-10-19T19:14:08.306Z,102081.88
2022-10-19T19:16:38.479Z,102076.94
2022-10-19T19:19:08.133Z,102067.47
2022-10-19T19:21:37.494Z,102063.09
2022-10-19T19:24:08.773Z,102059.78
2022-10-19T19:26:41.326Z,102061.19
2022-10-19T19:29:09.633Z,102056.72
2022-10-19T19:31:39.478Z,102047.75
2022-10-19T19:34:09.615Z,102044.47
2022-10-19T19:36:37.492Z,102028.31
2022-10-19T19:39:05.629Z,102018.03
2022-10-19T19:41:34.217Z,102012.69
2022-10-19T19:44:03.226Z,102012.66
2022-10-19T19:46:31.155Z,102003.75
2022-10-19T19:49:01.155Z,101996.25
2022-10-19T19:51:29.853Z,101977.81
2022-10-19T19:53:57.946Z,101975.63
2022-10-19T19:56:25.885Z,101978.63
2022-10-19T19:58:55.580Z,101978.63
2022-10-19T20:01:25.149Z,101985.00
2022-10-19T20:03:53.235Z,101976.75
2022-10-19T20:06:24.967Z,101976.09
2022-10-19T20:08:54.015Z,101967.72
2022-10-19T20:11:22.189Z,101959.88
2022-10-19T20:13:49.864Z,101948.91
2022-10-19T20:16:20.928Z,101954.78
2022-10-19T20:18:53.308Z,101957.81
2022-10-19T20:21:23.576Z,101966.19
2022-10-19T20:23:51.556Z,101971.84
2022-10-19T20:26:20.681Z,101950.72
2022-10-19T20:28:48.835Z,101956.16
2022-10-19T20:31:18.401Z,101946.03
2022-10-19T20:33:47.476Z,101947.41
2022-10-19T20:36:19.366Z,101937.69
2022-10-19T20:38:48.608Z,101927.94
2022-10-19T20:41:16.340Z,101924.69
2022-10-19T20:43:43.920Z,101921.34
2022-10-19T20:46:14.418Z,101883.19
2022-10-19T20:48:42.179Z,101907.69
2022-10-19T20:51:12.274Z,101906.59
2022-10-19T20:53:42.473Z,101899.63
2022-10-19T20:56:11.724Z,101899.22
2022-10-19T20:58:40.702Z,101900.59
2022-10-19T21:01:10.383Z,101907.28
2022-10-19T21:03:39.392Z,101905.00
2022-10-19T21:06:08.568Z,101905.25
2022-10-19T21:08:36.594Z,101908.28
2022-10-19T21:11:14.835Z,101910.19
2022-10-19T21:13:43.299Z,101900.59
2022-10-19T21:16:12.455Z,101897.34
2022-10-19T21:18:40.604Z,101894.88
2022-10-19T21:21:13.663Z,101897.50
2022-10-19T21:23:41.344Z,101899.69
2022-10-19T21:26:08.955Z,101907.22
2022-10-19T21:28:38.558Z,101892.97
2022-10-19T21:31:07.470Z,101892.13
2022-10-19T21:33:35.148Z,101900.78
2022-10-19T21:36:03.724Z,101894.22
2022-10-19T21:38:32.046Z,101887.38
2022-10-19T21:41:00.529Z,101891.06
2022-10-19T21:43:28.627Z,101887.94
2022-10-19T21:45:57.708Z,101893.97
2022-10-19T21:48:25.604Z,101889.44
2022-10-19T21:50:53.180Z,101878.19
2022-10-19T21:53:22.695Z,101866.84
2022-10-19T21:55:51.112Z,101876.47
2022-10-19T21:58:21.578Z,101869.19
2022-10-19T22:00:50.001Z,101869.47
2022-10-19T22:03:20.160Z,101867.81
2022-10-19T22:05:52.126Z,101869.19
2022-10-19T22:08:19.832Z,101866.03
2022-10-19T22:10:47.473Z,101852.63
2022-10-19T22:13:15.063Z,101858.63
2022-10-19T22:15:42.732Z,101856.56
2022-10-19T22:18:10.490Z,101855.34
2022-10-19T22:20:40.508Z,101845.09
2022-10-19T22:23:09.417Z,101844.16
2022-10-19T22:25:37.056Z,101832.66
2022-10-19T22:28:04.839Z,101830.72
2022-10-19T22:30:32.771Z,101836.59
2022-10-19T22:33:00.355Z,101831.41
2022-10-19T22:35:27.894Z,101828.69
2022-10-19T22:37:57.009Z,101820.06
2022-10-19T22:40:24.579Z,101809.78
2022-10-19T22:42:52.299Z,101808.41
2022-10-19T22:45:19.971Z,101809.09
2022-10-19T22:47:47.740Z,101813.34
2022-10-19T22:50:15.437Z,101798.97
2022-10-19T22:52:43.053Z,101790.19
2022-10-19T22:55:12.057Z,101789.66
2022-10-19T22:57:39.675Z,101785.69
2022-10-19T23:00:08.790Z,101781.06
2022-10-19T23:02:36.621Z,101776.81
2022-10-19T23:05:04.776Z,101781.44
2022-10-19T23:07:33.442Z,101786.53
2022-10-19T23:10:01.162Z,101773.78
2022-10-19T23:12:30.191Z,101769.25
2022-10-19T23:14:57.867Z,101764.34
2022-10-19T23:17:25.582Z,101769.13
2022-10-19T23:19:53.209Z,101761.88
2022-10-19T23:22:20.871Z,101755.16
2022-10-19T23:24:48.493Z,101735.47
2022-10-19T23:27:16.171Z,101732.56
2022-10-19T23:29:45.160Z,101740.94
2022-10-19T23:32:12.850Z,101738.59
2022-10-19T23:34:43.174Z,101733.94
2022-10-19T23:37:13.486Z,101728.19
2022-10-19T23:39:41.194Z,101736.69
2022-10-19T23:42:08.746Z,101734.22
2022-10-19T23:44:36.346Z,101726.28
2022-10-19T23:47:05.313Z,101729.59
2022-10-19T23:49:32.919Z,101722.47
2022-10-19T23:52:00.522Z,101710.44
2022-10-19T23:54:28.110Z,101706.31
2022-10-19T23:56:55.760Z,101696.75
2022-10-19T23:59:23.619Z,101702.22
